Sea Dolphin C — V7XL9 — position and weather

sailwx.info

Track history (hours):
 
Tides and Currents Weather Stations Pressure Air Temp Water Temp Dewpoint Dewpoint Depression Visibility Wind Speed Wind Dir Waves Ship Positions

Sea Dolphin C

Last reported at 2015-Aug-27 23:11 UTC. Time now 2015-Aug-28 17:13 UTC.
Position N 46°38' E 031°01'.

Length 181 m; draft 5.2 m.

Type: Cargo ship. MMSI: 538004513.

Date/timePositionNaut miles runAvg speedWind from/ knotsBaromVisibWave heightAir tempDewpointWater temp
2015-Aug-27 23:11N 46°38' E 031°01'4 6.3
2015-Aug-27 22:34N 46°35' E 031°00'6 5.8
2015-Aug-27 21:33N 46°29' E 030°58'0 0.2
2015-Aug-27 20:26N 46°29' E 030°58'0 0.0
2015-Aug-27 19:32N 46°29' E 030°58'0 0.0
2015-Aug-27 18:32N 46°29' E 030°58'0 0.0
2015-Aug-27 17:32N 46°29' E 030°58'0 0.0
2015-Aug-27 16:32N 46°29' E 030°58'0 0.0
2015-Aug-27 15:32N 46°29' E 030°58'0 0.0
2015-Aug-27 14:32N 46°29' E 030°58'0 0.0
2015-Aug-27 13:32N 46°29' E 030°58'0 0.0
2015-Aug-27 12:32N 46°29' E 030°58'0 0.0
2015-Aug-27 11:29N 46°29' E 030°58'0 0.0
2015-Aug-27 10:32N 46°29' E 030°58'0 0.0
2015-Aug-27 09:32N 46°29' E 030°58'0 0.0
2015-Aug-27 04:29N 46°29' E 030°58'0 0.0
2015-Aug-27 03:32N 46°29' E 030°58'0 0.0
2015-Aug-27 02:32N 46°29' E 030°58'0 0.0
2015-Aug-27 01:32N 46°29' E 030°58'0 0.0
2015-Aug-27 00:32N 46°29' E 030°58'0 0.0
2015-Aug-26 23:32N 46°29' E 030°58'0 0.0
2015-Aug-26 22:32N 46°29' E 030°58'0 0.0
2015-Aug-26 21:32N 46°29' E 030°58'0 0.0
2015-Aug-26 20:32N 46°29' E 030°58'0 0.0
2015-Aug-26 19:32N 46°29' E 030°58'0 0.0
2015-Aug-26 18:32N 46°29' E 030°58'0 0.0
2015-Aug-26 17:32N 46°29' E 030°58'0 0.0
2015-Aug-26 16:32N 46°29' E 030°58'0 0.0
2015-Aug-26 15:32N 46°29' E 030°58'0 0.0
2015-Aug-26 14:32N 46°29' E 030°58'0 0.0
2015-Aug-26 13:32N 46°29' E 030°58'0 0.0
2015-Aug-26 12:29N 46°29' E 030°58'0 0.0
2015-Aug-26 11:29N 46°29' E 030°58'0 0.0
2015-Aug-26 10:29N 46°29' E 030°58'0 0.0
2015-Aug-26 06:17N 46°29' E 030°58'0 0.1
2015-Aug-26 05:34N 46°29' E 030°58'3 2.6
2015-Aug-26 04:34N 46°26' E 030°57'1212.0
2015-Aug-26 03:33N 46°15' E 031°00'1413.8
2015-Aug-26 02:33N 46°04' E 031°14'1212.3
2015-Aug-26 01:33N 45°52' E 031°17'31313.0
2015-Aug-25 01:32N 40°56' E 028°58'10 9.9
2015-Aug-25 00:32N 40°47' E 028°53'2 1.7
2015-Aug-24 23:33N 40°45' E 028°53'1 0.6
2015-Aug-24 22:33N 40°46' E 028°53'1 0.5
2015-Aug-24 21:33N 40°46' E 028°54'1 0.5
2015-Aug-24 20:33N 40°47' E 028°54'1 0.6
2015-Aug-24 19:32N 40°47' E 028°55'1 0.8
2015-Aug-24 18:32N 40°48' E 028°55'1 1.0
2015-Aug-24 17:33N 40°49' E 028°55'3 2.5
2015-Aug-24 16:32N 40°50' E 028°52'9 9.7
2015-Aug-24 15:33N 40°50' E 028°39'229 9.9
2015-Aug-23 16:23N 37°41' E 025°52'910.7
2015-Aug-23 15:33N 37°32' E 025°53'1010.3
2015-Aug-23 14:33N 37°22' E 025°56'1111.2
2015-Aug-23 13:33N 37°12' E 026°03'1211.4
2015-Aug-23 12:32N 37°02' E 026°11'1111.5
2015-Aug-23 11:33N 36°53' E 026°19'1211.9
2015-Aug-23 10:33N 36°44' E 026°29'28211.1
2015-Aug-22 09:08N 33°16' E 030°20'11411.8
2015-Aug-21 23:28N 31°45' E 031°42'1411.2
2015-Aug-21 22:15N 31°32' E 031°46'5 6.8
2015-Aug-21 21:33N 31°27' E 031°46'0 0.0
2015-Aug-21 20:30N 31°27' E 031°46'0 0.0
2015-Aug-21 19:06N 31°27' E 031°46'0 0.0
2015-Aug-20 02:24N 31°27' E 031°46'0 0.0
2015-Aug-19 23:27N 31°27' E 031°46'0 0.0
2015-Aug-19 22:32N 31°27' E 031°46'0 0.0
2015-Aug-19 19:27N 31°27' E 031°46'0 0.0
2015-Aug-19 11:18N 31°27' E 031°46'0 0.0
2015-Aug-19 10:33N 31°27' E 031°46'0 0.0
2015-Aug-19 09:18N 31°27' E 031°46'0 0.0
2015-Aug-19 08:30N 31°27' E 031°46'0 0.0
2015-Aug-19 07:15N 31°27' E 031°46'0 0.0
2015-Aug-19 05:12N 31°27' E 031°46'  
Track history (hours):
 
Tides and Currents Weather Stations Pressure Air Temp Water Temp Dewpoint Dewpoint Depression Visibility Wind Speed Wind Dir Waves Ship Positions

Sea Dolphin C

Last reported at 2015-Aug-27 23:11 UTC. Time now 2015-Aug-28 17:13 UTC.
Position N 46°38' E 031°01'.

Length 181 m; draft 5.2 m.

Type: Cargo ship. MMSI: 538004513.

Date/timePositionNaut miles runAvg speedWind from/ knotsBaromVisibWave heightAir tempDewpointWater temp
2015-Aug-27 23:11N 46°38' E 031°01'4 6.3
2015-Aug-27 22:34N 46°35' E 031°00'6 5.8
2015-Aug-27 21:33N 46°29' E 030°58'0 0.2
2015-Aug-27 20:26N 46°29' E 030°58'0 0.0
2015-Aug-27 19:32N 46°29' E 030°58'0 0.0
2015-Aug-27 18:32N 46°29' E 030°58'0 0.0
2015-Aug-27 17:32N 46°29' E 030°58'0 0.0
2015-Aug-27 16:32N 46°29' E 030°58'0 0.0
2015-Aug-27 15:32N 46°29' E 030°58'0 0.0
2015-Aug-27 14:32N 46°29' E 030°58'0 0.0
2015-Aug-27 13:32N 46°29' E 030°58'0 0.0
2015-Aug-27 12:32N 46°29' E 030°58'0 0.0
2015-Aug-27 11:29N 46°29' E 030°58'0 0.0
2015-Aug-27 10:32N 46°29' E 030°58'0 0.0
2015-Aug-27 09:32N 46°29' E 030°58'0 0.0
2015-Aug-27 04:29N 46°29' E 030°58'0 0.0
2015-Aug-27 03:32N 46°29' E 030°58'0 0.0
2015-Aug-27 02:32N 46°29' E 030°58'0 0.0
2015-Aug-27 01:32N 46°29' E 030°58'0 0.0
2015-Aug-27 00:32N 46°29' E 030°58'0 0.0
2015-Aug-26 23:32N 46°29' E 030°58'0 0.0
2015-Aug-26 22:32N 46°29' E 030°58'0 0.0
2015-Aug-26 21:32N 46°29' E 030°58'0 0.0
2015-Aug-26 20:32N 46°29' E 030°58'0 0.0
2015-Aug-26 19:32N 46°29' E 030°58'0 0.0
2015-Aug-26 18:32N 46°29' E 030°58'0 0.0
2015-Aug-26 17:32N 46°29' E 030°58'0 0.0
2015-Aug-26 16:32N 46°29' E 030°58'0 0.0
2015-Aug-26 15:32N 46°29' E 030°58'0 0.0
2015-Aug-26 14:32N 46°29' E 030°58'0 0.0
2015-Aug-26 13:32N 46°29' E 030°58'0 0.0
2015-Aug-26 12:29N 46°29' E 030°58'0 0.0
2015-Aug-26 11:29N 46°29' E 030°58'0 0.0
2015-Aug-26 10:29N 46°29' E 030°58'0 0.0
2015-Aug-26 06:17N 46°29' E 030°58'0 0.1
2015-Aug-26 05:34N 46°29' E 030°58'3 2.6
2015-Aug-26 04:34N 46°26' E 030°57'1212.0
2015-Aug-26 03:33N 46°15' E 031°00'1413.8
2015-Aug-26 02:33N 46°04' E 031°14'1212.3
2015-Aug-26 01:33N 45°52' E 031°17'31313.0
2015-Aug-25 01:32N 40°56' E 028°58'10 9.9
2015-Aug-25 00:32N 40°47' E 028°53'2 1.7
2015-Aug-24 23:33N 40°45' E 028°53'1 0.6
2015-Aug-24 22:33N 40°46' E 028°53'1 0.5
2015-Aug-24 21:33N 40°46' E 028°54'1 0.5
2015-Aug-24 20:33N 40°47' E 028°54'1 0.6
2015-Aug-24 19:32N 40°47' E 028°55'1 0.8
2015-Aug-24 18:32N 40°48' E 028°55'1 1.0
2015-Aug-24 17:33N 40°49' E 028°55'3 2.5
2015-Aug-24 16:32N 40°50' E 028°52'9 9.7
2015-Aug-24 15:33N 40°50' E 028°39'229 9.9
2015-Aug-23 16:23N 37°41' E 025°52'910.7
2015-Aug-23 15:33N 37°32' E 025°53'1010.3
2015-Aug-23 14:33N 37°22' E 025°56'1111.2
2015-Aug-23 13:33N 37°12' E 026°03'1211.4
2015-Aug-23 12:32N 37°02' E 026°11'1111.5
2015-Aug-23 11:33N 36°53' E 026°19'1211.9
2015-Aug-23 10:33N 36°44' E 026°29'28211.1
2015-Aug-22 09:08N 33°16' E 030°20'11411.8
2015-Aug-21 23:28N 31°45' E 031°42'1411.2
2015-Aug-21 22:15N 31°32' E 031°46'5 6.8
2015-Aug-21 21:33N 31°27' E 031°46'0 0.0
2015-Aug-21 20:30N 31°27' E 031°46'0 0.0
2015-Aug-21 19:06N 31°27' E 031°46'0 0.0
2015-Aug-20 02:24N 31°27' E 031°46'0 0.0
2015-Aug-19 23:27N 31°27' E 031°46'0 0.0
2015-Aug-19 22:32N 31°27' E 031°46'0 0.0
2015-Aug-19 19:27N 31°27' E 031°46'0 0.0
2015-Aug-19 11:18N 31°27' E 031°46'0 0.0
2015-Aug-19 10:33N 31°27' E 031°46'0 0.0
2015-Aug-19 09:18N 31°27' E 031°46'0 0.0
2015-Aug-19 08:30N 31°27' E 031°46'0 0.0
2015-Aug-19 07:15N 31°27' E 031°46'0 0.0
2015-Aug-19 05:12N 31°27' E 031°46'  

Dump ship's entire track history